VLG94 GCLP-EIDW
Flight info
| Callsign | VLG94 |
|---|---|
| Flight time | N/A |
| Altitude | 34000 |
| Route | VASTO DCT NIDEB DCT TIGGI DCT IBIDO DCT XERES DCT ADVAT/M079F340 T290 GELPO DCT JABEX/N0454F340 DCT BIBLA DCT SOVIX DCT CML DCT SUTEX SUTEX4L |
| Aircraft | A21N/M-SDE2E3FGHIRWXY/LB1 |
Departure
| Time | N/A |
|---|---|
| Airport | Gran Canaria Airport (GCLP) |
Arrival
| Time | 2026-05-05 02:20 |
|---|---|
| Airport | Dublin Airport (EIDW) |
| Time | Latitude | Longitude | Altitude | Speed | Heading |
|---|---|---|---|---|---|
| 2026-05-04 23:44 | 36.38479 | -10.87568 | 36168 ft | 461 kts | 359° |
| 2026-05-04 23:44 | 36.42032 | -10.87057 | 36165 ft | 462 kts | 359° |
| 2026-05-04 23:44 | 36.49747 | -10.85950 | 36196 ft | 462 kts | 359° |
| 2026-05-04 23:45 | 36.61564 | -10.84239 | 36165 ft | 458 kts | 359° |
| 2026-05-04 23:45 | 36.77332 | -10.81956 | 36167 ft | 458 kts | 359° |
| 2026-05-04 23:46 | 36.97163 | -10.79066 | 36168 ft | 457 kts | 359° |
| 2026-05-04 23:46 | 37.04451 | -10.78000 | 36171 ft | 458 kts | 359° |
| 2026-05-04 23:47 | 37.18504 | -10.75939 | 36170 ft | 458 kts | 359° |
| 2026-05-04 23:47 | 37.27341 | -10.74638 | 36168 ft | 458 kts | 358° |
| 2026-05-04 23:48 | 37.33640 | -10.73709 | 36167 ft | 458 kts | 358° |
| 2026-05-04 23:48 | 37.39976 | -10.72774 | 36168 ft | 458 kts | 358° |
| 2026-05-04 23:49 | 37.46306 | -10.71838 | 36165 ft | 458 kts | 358° |
| 2026-05-04 23:49 | 37.52596 | -10.70905 | 36170 ft | 457 kts | 358° |
| 2026-05-04 23:50 | 37.58920 | -10.69966 | 36168 ft | 457 kts | 358° |
| 2026-05-04 23:50 | 37.65245 | -10.69027 | 36167 ft | 457 kts | 358° |
| 2026-05-04 23:51 | 37.71559 | -10.68086 | 36193 ft | 457 kts | 358° |
| 2026-05-04 23:51 | 37.77869 | -10.67143 | 36164 ft | 455 kts | 358° |
| 2026-05-04 23:52 | 37.84162 | -10.66203 | 36161 ft | 455 kts | 358° |
| 2026-05-04 23:52 | 37.90446 | -10.65263 | 36163 ft | 455 kts | 358° |
| 2026-05-04 23:53 | 37.96692 | -10.64327 | 36159 ft | 455 kts | 358° |
| 2026-05-04 23:53 | 38.02983 | -10.63383 | 36159 ft | 455 kts | 358° |
| 2026-05-04 23:54 | 38.09270 | -10.62437 | 36160 ft | 455 kts | 358° |
| 2026-05-04 23:54 | 38.15529 | -10.61493 | 36160 ft | 455 kts | 358° |
| 2026-05-04 23:55 | 38.21820 | -10.60543 | 36165 ft | 454 kts | 358° |
| 2026-05-04 23:56 | 38.31208 | -10.59122 | 36160 ft | 454 kts | 358° |
| 2026-05-04 23:56 | 38.37486 | -10.58170 | 36156 ft | 454 kts | 358° |
| 2026-05-04 23:57 | 38.43766 | -10.57216 | 36173 ft | 454 kts | 358° |
| 2026-05-04 23:57 | 38.50055 | -10.56260 | 36157 ft | 455 kts | 358° |
| 2026-05-04 23:58 | 38.56306 | -10.55307 | 36157 ft | 455 kts | 358° |
| 2026-05-04 23:58 | 38.62591 | -10.54347 | 36156 ft | 455 kts | 358° |
| 2026-05-04 23:59 | 38.68883 | -10.53384 | 36157 ft | 455 kts | 359° |
| 2026-05-04 23:59 | 38.75165 | -10.52421 | 36159 ft | 454 kts | 359° |
| 2026-05-05 00:00 | 38.81450 | -10.51456 | 36158 ft | 454 kts | 359° |
| 2026-05-05 00:00 | 38.87698 | -10.50496 | 36159 ft | 454 kts | 359° |
| 2026-05-05 00:01 | 38.93978 | -10.49527 | 36158 ft | 454 kts | 359° |
| 2026-05-05 00:01 | 39.00253 | -10.48559 | 36157 ft | 454 kts | 359° |
| 2026-05-05 00:02 | 39.06526 | -10.47589 | 36157 ft | 453 kts | 359° |
| 2026-05-05 00:02 | 39.12801 | -10.46617 | 36171 ft | 453 kts | 359° |
| 2026-05-05 00:03 | 39.19018 | -10.45651 | 36154 ft | 452 kts | 359° |
| 2026-05-05 00:03 | 39.25262 | -10.44681 | 36160 ft | 452 kts | 359° |
| 2026-05-05 00:04 | 39.31516 | -10.43707 | 36155 ft | 452 kts | 359° |
| 2026-05-05 00:04 | 39.37766 | -10.42732 | 36156 ft | 452 kts | 359° |
| 2026-05-05 00:05 | 39.44007 | -10.41756 | 36156 ft | 451 kts | 359° |
| 2026-05-05 00:05 | 39.50256 | -10.40778 | 36157 ft | 451 kts | 359° |
| 2026-05-05 00:06 | 39.55442 | -10.39965 | 36153 ft | 451 kts | 359° |
| 2026-05-05 00:06 | 39.61636 | -10.38991 | 36154 ft | 450 kts | 358° |
| 2026-05-05 00:07 | 39.67861 | -10.38010 | 36155 ft | 450 kts | 358° |
| 2026-05-05 00:07 | 39.74080 | -10.37030 | 36157 ft | 450 kts | 358° |
| 2026-05-05 00:08 | 39.80309 | -10.36047 | 36180 ft | 450 kts | 358° |
| 2026-05-05 00:08 | 39.86513 | -10.35064 | 36154 ft | 448 kts | 358° |
| 2026-05-05 00:09 | 39.92712 | -10.34081 | 36154 ft | 448 kts | 358° |
| 2026-05-05 00:09 | 39.98865 | -10.33105 | 36154 ft | 448 kts | 358° |
| 2026-05-05 00:10 | 40.05053 | -10.32121 | 36150 ft | 447 kts | 359° |
| 2026-05-05 00:10 | 40.11230 | -10.31135 | 36151 ft | 446 kts | 359° |
| 2026-05-05 00:11 | 40.17397 | -10.30150 | 36149 ft | 446 kts | 359° |
| 2026-05-05 00:11 | 40.23528 | -10.29169 | 36147 ft | 446 kts | 359° |
| 2026-05-05 00:12 | 40.29691 | -10.28182 | 36148 ft | 446 kts | 359° |
| 2026-05-05 00:12 | 40.35859 | -10.27192 | 36146 ft | 446 kts | 359° |
| 2026-05-05 00:13 | 40.42025 | -10.26200 | 36143 ft | 446 kts | 359° |
| 2026-05-05 00:13 | 40.48194 | -10.25206 | 36150 ft | 446 kts | 359° |
| 2026-05-05 00:14 | 40.54358 | -10.24210 | 36146 ft | 446 kts | 359° |
| 2026-05-05 00:14 | 40.60515 | -10.23214 | 36145 ft | 446 kts | 359° |
| 2026-05-05 00:15 | 40.66680 | -10.22215 | 36143 ft | 446 kts | 359° |
| 2026-05-05 00:15 | 40.72791 | -10.21223 | 36143 ft | 444 kts | 360° |
| 2026-05-05 00:16 | 40.78925 | -10.20224 | 36156 ft | 444 kts | 359° |
| 2026-05-05 00:16 | 40.85062 | -10.19225 | 36143 ft | 445 kts | 359° |
| 2026-05-05 00:17 | 40.91217 | -10.18320 | 36159 ft | 443 kts | 358° |
| 2026-05-05 00:17 | 40.97337 | -10.17684 | 36139 ft | 440 kts | 357° |
| 2026-05-05 00:18 | 41.03451 | -10.17104 | 36137 ft | 440 kts | 357° |
| 2026-05-05 00:18 | 41.09560 | -10.16501 | 36136 ft | 440 kts | 357° |
| 2026-05-05 00:19 | 41.15667 | -10.15878 | 36138 ft | 440 kts | 358° |
| 2026-05-05 00:19 | 41.21744 | -10.15249 | 36135 ft | 440 kts | 358° |
| 2026-05-05 00:20 | 41.27855 | -10.14615 | 36133 ft | 440 kts | 358° |
| 2026-05-05 00:20 | 41.33968 | -10.13981 | 36153 ft | 440 kts | 358° |
| 2026-05-05 00:21 | 41.40088 | -10.13347 | 36132 ft | 442 kts | 358° |
| 2026-05-05 00:21 | 41.46232 | -10.12708 | 36130 ft | 442 kts | 358° |
| 2026-05-05 00:22 | 41.52335 | -10.12071 | 36127 ft | 442 kts | 358° |
| 2026-05-05 00:22 | 41.58478 | -10.11430 | 36127 ft | 443 kts | 359° |
| 2026-05-05 00:23 | 41.64624 | -10.10787 | 36126 ft | 443 kts | 359° |
| 2026-05-05 00:23 | 41.70774 | -10.10142 | 36121 ft | 443 kts | 359° |
| 2026-05-05 00:24 | 41.76924 | -10.09496 | 36134 ft | 443 kts | 359° |
| 2026-05-05 00:24 | 41.83093 | -10.08847 | 36119 ft | 444 kts | 359° |
| 2026-05-05 00:25 | 41.89256 | -10.08197 | 36117 ft | 444 kts | 359° |
| 2026-05-05 00:25 | 41.95385 | -10.07549 | 36116 ft | 444 kts | 359° |
| 2026-05-05 00:26 | 42.01553 | -10.06895 | 36116 ft | 444 kts | 1° |
| 2026-05-05 00:26 | 42.07711 | -10.05914 | 36115 ft | 446 kts | 4° |
| 2026-05-05 00:27 | 42.13858 | -10.04685 | 36114 ft | 446 kts | 4° |
| 2026-05-05 00:27 | 42.19998 | -10.03448 | 36112 ft | 446 kts | 4° |
| 2026-05-05 00:28 | 42.26142 | -10.02244 | 36107 ft | 446 kts | 4° |
| 2026-05-05 00:28 | 42.32294 | -10.01055 | 36108 ft | 446 kts | 4° |
| 2026-05-05 00:29 | 42.38397 | -9.99877 | 36105 ft | 446 kts | 4° |
| 2026-05-05 00:29 | 42.44538 | -9.98689 | 36102 ft | 446 kts | 4° |
| 2026-05-05 00:30 | 42.50679 | -9.97497 | 36098 ft | 446 kts | 4° |
| 2026-05-05 00:30 | 42.56830 | -9.96300 | 36099 ft | 446 kts | 4° |
| 2026-05-05 00:31 | 42.62979 | -9.95102 | 36098 ft | 446 kts | 4° |
| 2026-05-05 00:31 | 42.69120 | -9.93903 | 36094 ft | 446 kts | 4° |
| 2026-05-05 00:32 | 42.75257 | -9.92701 | 36094 ft | 446 kts | 4° |
| 2026-05-05 00:32 | 42.81361 | -9.91505 | 36099 ft | 445 kts | 5° |
| 2026-05-05 00:33 | 42.87498 | -9.90298 | 36084 ft | 445 kts | 5° |
| 2026-05-05 00:33 | 42.93620 | -9.89093 | 36087 ft | 445 kts | 5° |
| 2026-05-05 00:34 | 42.99747 | -9.87884 | 36081 ft | 445 kts | 5° |
| 2026-05-05 00:34 | 43.05871 | -9.86674 | 36083 ft | 444 kts | 5° |
| 2026-05-05 00:35 | 43.11996 | -9.85461 | 36081 ft | 444 kts | 5° |
| 2026-05-05 00:35 | 43.18114 | -9.84246 | 36078 ft | 444 kts | 5° |
| 2026-05-05 00:36 | 43.24227 | -9.83031 | 36081 ft | 444 kts | 5° |
| 2026-05-05 00:36 | 43.30349 | -9.81811 | 36072 ft | 445 kts | 5° |
| 2026-05-05 00:37 | 43.36436 | -9.80596 | 36071 ft | 445 kts | 5° |
| 2026-05-05 00:37 | 43.42563 | -9.79370 | 36078 ft | 444 kts | 6° |
| 2026-05-05 00:38 | 43.48689 | -9.78141 | 36070 ft | 444 kts | 6° |
| 2026-05-05 00:38 | 43.54801 | -9.76913 | 36069 ft | 444 kts | 6° |
| 2026-05-05 00:39 | 43.60907 | -9.75684 | 36070 ft | 444 kts | 6° |
| 2026-05-05 00:39 | 43.67010 | -9.74453 | 36068 ft | 443 kts | 6° |
| 2026-05-05 00:40 | 43.73114 | -9.73219 | 36066 ft | 443 kts | 6° |
| 2026-05-05 00:40 | 43.79209 | -9.71984 | 36066 ft | 443 kts | 6° |
| 2026-05-05 00:41 | 43.85258 | -9.70756 | 36063 ft | 442 kts | 6° |
| 2026-05-05 00:41 | 43.91349 | -9.69517 | 36062 ft | 442 kts | 6° |
| 2026-05-05 00:42 | 43.97433 | -9.68277 | 36059 ft | 442 kts | 6° |
| 2026-05-05 00:42 | 44.03538 | -9.67030 | 36061 ft | 441 kts | 6° |
| 2026-05-05 00:43 | 44.09574 | -9.65794 | 36059 ft | 441 kts | 6° |
| 2026-05-05 00:43 | 44.15644 | -9.64550 | 36056 ft | 441 kts | 6° |
| 2026-05-05 00:44 | 44.21711 | -9.63303 | 36062 ft | 441 kts | 7° |
| 2026-05-05 00:44 | 44.27782 | -9.62053 | 36056 ft | 440 kts | 7° |
| 2026-05-05 00:45 | 44.33806 | -9.60810 | 36055 ft | 440 kts | 7° |
| 2026-05-05 00:45 | 44.39870 | -9.59556 | 36056 ft | 440 kts | 7° |
| 2026-05-05 00:46 | 44.45932 | -9.58299 | 36056 ft | 440 kts | 7° |
| 2026-05-05 00:46 | 44.51957 | -9.57048 | 36056 ft | 440 kts | 7° |
| 2026-05-05 00:47 | 44.58025 | -9.55785 | 36056 ft | 440 kts | 7° |
| 2026-05-05 00:47 | 44.64089 | -9.54521 | 36053 ft | 440 kts | 7° |
| 2026-05-05 00:48 | 44.70135 | -9.53257 | 36054 ft | 439 kts | 7° |
| 2026-05-05 00:48 | 44.76200 | -9.51987 | 36055 ft | 439 kts | 7° |
| 2026-05-05 00:49 | 44.82215 | -9.50725 | 36044 ft | 440 kts | 7° |
| 2026-05-05 00:49 | 44.88279 | -9.49450 | 36054 ft | 440 kts | 7° |
| 2026-05-05 00:50 | 44.94331 | -9.48174 | 36040 ft | 440 kts | 7° |
| 2026-05-05 00:50 | 45.00403 | -9.47131 | 36061 ft | 439 kts | 1° |
| 2026-05-05 00:51 | 45.05481 | -9.46998 | 36056 ft | 438 kts | 359° |
| 2026-05-05 00:51 | 45.12580 | -9.47036 | 36058 ft | 438 kts | 359° |
| 2026-05-05 00:52 | 45.18682 | -9.47115 | 36054 ft | 438 kts | 359° |
| 2026-05-05 00:52 | 45.23787 | -9.47172 | 36050 ft | 438 kts | 359° |
| 2026-05-05 00:53 | 45.29874 | -9.47228 | 36052 ft | 437 kts | 359° |
| 2026-05-05 00:53 | 45.35963 | -9.47280 | 36052 ft | 437 kts | 359° |
| 2026-05-05 00:54 | 45.42015 | -9.47331 | 36049 ft | 437 kts | 359° |
| 2026-05-05 00:54 | 45.48107 | -9.47382 | 36050 ft | 437 kts | 359° |
| 2026-05-05 00:55 | 45.54196 | -9.47435 | 36057 ft | 437 kts | 359° |
| 2026-05-05 00:55 | 45.60233 | -9.47487 | 36054 ft | 437 kts | 359° |
| 2026-05-05 00:56 | 45.66310 | -9.47539 | 36050 ft | 436 kts | 359° |
| 2026-05-05 00:56 | 45.72375 | -9.47592 | 36053 ft | 436 kts | 359° |
| 2026-05-05 00:57 | 45.78448 | -9.47644 | 36051 ft | 436 kts | 360° |
| 2026-05-05 00:57 | 45.84509 | -9.47697 | 36051 ft | 436 kts | 360° |
| 2026-05-05 00:58 | 45.90558 | -9.47749 | 36041 ft | 438 kts | 360° |
| 2026-05-05 00:58 | 45.96657 | -9.47803 | 36047 ft | 438 kts | 360° |
| 2026-05-05 00:59 | 46.02754 | -9.47856 | 36052 ft | 437 kts | 0° |
| 2026-05-05 00:59 | 46.08842 | -9.47910 | 36052 ft | 437 kts | 0° |
| 2026-05-05 01:00 | 46.14924 | -9.47963 | 36053 ft | 437 kts | 0° |
| 2026-05-05 01:00 | 46.20961 | -9.48016 | 36052 ft | 436 kts | 0° |
| 2026-05-05 01:01 | 46.27033 | -9.48070 | 36052 ft | 436 kts | 0° |
| 2026-05-05 01:01 | 46.33114 | -9.48124 | 36044 ft | 436 kts | 0° |
| 2026-05-05 01:02 | 46.39191 | -9.48177 | 36045 ft | 436 kts | 0° |
| 2026-05-05 01:02 | 46.45271 | -9.48231 | 36043 ft | 436 kts | 0° |
| 2026-05-05 01:03 | 46.51342 | -9.48285 | 36046 ft | 436 kts | 0° |
| 2026-05-05 01:03 | 46.57423 | -9.48340 | 36048 ft | 436 kts | 0° |
| 2026-05-05 01:04 | 46.63493 | -9.48394 | 36048 ft | 436 kts | 0° |
| 2026-05-05 01:04 | 46.72593 | -9.48476 | 36049 ft | 436 kts | 0° |
| 2026-05-05 01:05 | 46.78657 | -9.48530 | 36042 ft | 436 kts | 0° |
| 2026-05-05 01:05 | 46.84682 | -9.48585 | 36047 ft | 435 kts | 0° |
| 2026-05-05 01:06 | 46.90745 | -9.48640 | 36044 ft | 435 kts | 0° |
| 2026-05-05 01:06 | 46.96812 | -9.48694 | 36046 ft | 435 kts | 0° |
| 2026-05-05 01:07 | 47.02870 | -9.48749 | 36044 ft | 435 kts | 0° |
| 2026-05-05 01:07 | 47.08924 | -9.48804 | 36051 ft | 435 kts | 0° |
| 2026-05-05 01:08 | 47.14952 | -9.48859 | 36047 ft | 437 kts | 0° |
| 2026-05-05 01:08 | 47.21030 | -9.48915 | 36042 ft | 437 kts | 1° |
| 2026-05-05 01:09 | 47.27109 | -9.48971 | 36053 ft | 436 kts | 0° |
| 2026-05-05 01:09 | 47.33181 | -9.49026 | 36048 ft | 436 kts | 0° |
| 2026-05-05 01:10 | 47.39254 | -9.49082 | 36047 ft | 436 kts | 0° |
| 2026-05-05 01:10 | 47.45329 | -9.49138 | 36050 ft | 436 kts | 1° |
| 2026-05-05 01:11 | 47.51353 | -9.49194 | 36051 ft | 436 kts | 1° |
| 2026-05-05 01:11 | 47.57419 | -9.49250 | 36051 ft | 436 kts | 1° |
| 2026-05-05 01:12 | 47.63486 | -9.49306 | 36049 ft | 436 kts | 1° |
| 2026-05-05 01:12 | 47.69548 | -9.49363 | 36053 ft | 435 kts | 1° |
| 2026-05-05 01:13 | 47.75612 | -9.49420 | 36057 ft | 435 kts | 1° |
| 2026-05-05 01:13 | 47.81663 | -9.49476 | 36058 ft | 435 kts | 1° |
| 2026-05-05 01:14 | 47.87681 | -9.49533 | 36055 ft | 434 kts | 1° |
| 2026-05-05 01:14 | 47.93718 | -9.49589 | 36059 ft | 434 kts | 1° |
| 2026-05-05 01:15 | 47.99764 | -9.49646 | 36058 ft | 434 kts | 1° |
| 2026-05-05 01:15 | 48.05800 | -9.49703 | 36055 ft | 433 kts | 1° |
| 2026-05-05 01:16 | 48.11797 | -9.49760 | 36063 ft | 432 kts | 1° |
| 2026-05-05 01:16 | 48.17820 | -9.49817 | 36065 ft | 432 kts | 1° |
| 2026-05-05 01:17 | 48.23840 | -9.49874 | 36065 ft | 432 kts | 1° |
| 2026-05-05 01:17 | 48.29815 | -9.49931 | 36069 ft | 430 kts | 1° |
| 2026-05-05 01:18 | 48.35801 | -9.49989 | 36072 ft | 429 kts | 1° |
| 2026-05-05 01:18 | 48.41781 | -9.50045 | 36070 ft | 431 kts | 1° |
| 2026-05-05 01:19 | 48.47804 | -9.50102 | 36075 ft | 434 kts | 1° |
| 2026-05-05 01:19 | 48.53843 | -9.50161 | 36074 ft | 433 kts | 1° |
| 2026-05-05 01:20 | 48.59836 | -9.50219 | 36069 ft | 433 kts | 1° |
| 2026-05-05 01:20 | 48.65872 | -9.50269 | 36073 ft | 433 kts | 1° |
| 2026-05-05 01:21 | 48.71914 | -9.50274 | 36074 ft | 433 kts | 1° |
| 2026-05-05 01:21 | 48.77934 | -9.50265 | 36078 ft | 432 kts | 1° |
| 2026-05-05 01:22 | 48.83912 | -9.50258 | 36082 ft | 432 kts | 1° |
| 2026-05-05 01:22 | 48.89941 | -9.50254 | 36082 ft | 432 kts | 1° |
| 2026-05-05 01:23 | 48.95902 | -9.50253 | 36077 ft | 430 kts | 1° |
| 2026-05-05 01:23 | 49.01846 | -9.49669 | 36079 ft | 427 kts | 9° |
| 2026-05-05 01:24 | 49.07716 | -9.48258 | 36081 ft | 427 kts | 11° |
| 2026-05-05 01:24 | 49.13568 | -9.46689 | 36080 ft | 427 kts | 11° |
| 2026-05-05 01:25 | 49.19405 | -9.45102 | 36089 ft | 424 kts | 11° |
| 2026-05-05 01:25 | 49.25219 | -9.43534 | 36083 ft | 424 kts | 11° |
| 2026-05-05 01:26 | 49.31008 | -9.41978 | 36083 ft | 424 kts | 11° |
| 2026-05-05 01:26 | 49.36834 | -9.40413 | 36072 ft | 424 kts | 11° |
| 2026-05-05 01:27 | 49.42585 | -9.38864 | 36089 ft | 421 kts | 11° |
| 2026-05-05 01:27 | 49.48388 | -9.37296 | 36089 ft | 420 kts | 11° |
| 2026-05-05 01:28 | 49.54121 | -9.35743 | 36086 ft | 420 kts | 11° |
| 2026-05-05 01:28 | 49.59883 | -9.34179 | 36072 ft | 420 kts | 11° |
| 2026-05-05 01:29 | 49.65639 | -9.32612 | 36089 ft | 419 kts | 11° |
| 2026-05-05 01:29 | 49.71384 | -9.31045 | 36091 ft | 418 kts | 11° |
| 2026-05-05 01:30 | 49.77079 | -9.29487 | 36091 ft | 418 kts | 11° |
| 2026-05-05 01:30 | 49.82815 | -9.27915 | 36084 ft | 418 kts | 11° |
| 2026-05-05 01:31 | 49.88553 | -9.26338 | 36097 ft | 418 kts | 11° |
| 2026-05-05 01:31 | 49.94295 | -9.24756 | 36097 ft | 419 kts | 11° |
| 2026-05-05 01:32 | 50.00029 | -9.23173 | 36100 ft | 419 kts | 11° |
| 2026-05-05 01:32 | 50.05768 | -9.21584 | 36086 ft | 419 kts | 11° |
| 2026-05-05 01:33 | 50.11516 | -9.19989 | 36102 ft | 420 kts | 11° |
| 2026-05-05 01:33 | 50.17253 | -9.18394 | 36100 ft | 421 kts | 11° |
| 2026-05-05 01:34 | 50.23025 | -9.16785 | 36102 ft | 421 kts | 11° |
| 2026-05-05 01:34 | 50.28794 | -9.15173 | 36097 ft | 421 kts | 11° |
| 2026-05-05 01:35 | 50.34558 | -9.13556 | 36105 ft | 422 kts | 11° |
| 2026-05-05 01:35 | 50.40347 | -9.11930 | 36105 ft | 422 kts | 11° |
| 2026-05-05 01:36 | 50.46136 | -9.10301 | 36102 ft | 422 kts | 11° |
| 2026-05-05 01:36 | 50.51884 | -9.08679 | 36102 ft | 422 kts | 11° |
| 2026-05-05 01:37 | 50.57683 | -9.07037 | 36105 ft | 424 kts | 11° |
| 2026-05-05 01:37 | 50.63508 | -9.05385 | 36107 ft | 424 kts | 11° |
| 2026-05-05 01:38 | 50.69299 | -9.03738 | 36108 ft | 424 kts | 11° |
| 2026-05-05 01:38 | 50.75123 | -9.02078 | 36107 ft | 424 kts | 11° |
| 2026-05-05 01:39 | 50.80939 | -9.00416 | 36109 ft | 424 kts | 11° |
| 2026-05-05 01:39 | 50.86712 | -8.98761 | 36107 ft | 424 kts | 11° |
| 2026-05-05 01:40 | 50.92533 | -8.97089 | 36122 ft | 424 kts | 11° |
| 2026-05-05 01:40 | 50.97368 | -8.95697 | 36110 ft | 425 kts | 11° |
| 2026-05-05 01:41 | 51.03194 | -8.94015 | 36114 ft | 425 kts | 11° |
| 2026-05-05 01:41 | 51.09028 | -8.92325 | 36108 ft | 426 kts | 12° |
| 2026-05-05 01:42 | 51.14606 | -8.89267 | 36105 ft | 425 kts | 29° |
| 2026-05-05 01:42 | 51.19550 | -8.84087 | 36110 ft | 426 kts | 35° |
| 2026-05-05 01:43 | 51.24282 | -8.78489 | 36097 ft | 427 kts | 36° |
| 2026-05-05 01:43 | 51.29026 | -8.72752 | 36098 ft | 429 kts | 36° |
| 2026-05-05 01:44 | 51.33802 | -8.67006 | 36103 ft | 430 kts | 36° |
| 2026-05-05 01:44 | 51.38592 | -8.61268 | 36096 ft | 429 kts | 36° |
| 2026-05-05 01:45 | 51.43387 | -8.55591 | 36097 ft | 428 kts | 34° |
| 2026-05-05 01:45 | 51.48365 | -8.50331 | 36097 ft | 428 kts | 32° |
| 2026-05-05 01:46 | 51.53401 | -8.45238 | 36096 ft | 428 kts | 31° |
| 2026-05-05 01:46 | 51.58422 | -8.40123 | 36091 ft | 430 kts | 32° |
| 2026-05-05 01:47 | 51.63470 | -8.34914 | 36094 ft | 431 kts | 32° |
| 2026-05-05 01:47 | 51.68505 | -8.29682 | 36088 ft | 431 kts | 32° |
| 2026-05-05 01:48 | 51.73545 | -8.24428 | 36098 ft | 431 kts | 32° |
| 2026-05-05 01:48 | 51.78578 | -8.19169 | 36092 ft | 431 kts | 32° |
| 2026-05-05 01:49 | 51.83622 | -8.13886 | 36092 ft | 433 kts | 32° |
| 2026-05-05 01:49 | 51.88644 | -8.08612 | 36091 ft | 433 kts | 32° |
| 2026-05-05 01:50 | 51.93691 | -8.03297 | 36094 ft | 433 kts | 32° |
| 2026-05-05 01:50 | 51.98739 | -7.97966 | 36094 ft | 433 kts | 32° |
| 2026-05-05 01:51 | 52.03790 | -7.92618 | 36099 ft | 433 kts | 32° |
| 2026-05-05 01:51 | 52.08840 | -7.87257 | 35843 ft | 434 kts | 32° |
| 2026-05-05 01:52 | 52.11331 | -7.84608 | 35604 ft | 432 kts | 32° |
| 2026-05-05 01:52 | 52.13841 | -7.81933 | 35360 ft | 430 kts | 32° |
| 2026-05-05 01:52 | 52.16337 | -7.79270 | 35114 ft | 427 kts | 32° |
| 2026-05-05 01:52 | 52.18813 | -7.76625 | 34870 ft | 424 kts | 32° |
| 2026-05-05 01:53 | 52.21277 | -7.73989 | 34628 ft | 422 kts | 32° |
| 2026-05-05 01:53 | 52.23724 | -7.71368 | 34228 ft | 419 kts | 32° |
| 2026-05-05 01:53 | 52.26149 | -7.68767 | 33728 ft | 415 kts | 33° |
| 2026-05-05 01:53 | 52.28514 | -7.66227 | 33195 ft | 410 kts | 32° |
| 2026-05-05 01:54 | 52.30899 | -7.63662 | 32527 ft | 410 kts | 32° |
| 2026-05-05 01:54 | 52.33243 | -7.61138 | 31993 ft | 407 kts | 33° |
| 2026-05-05 01:54 | 52.35597 | -7.58601 | 31499 ft | 403 kts | 33° |
| 2026-05-05 01:54 | 52.37922 | -7.56090 | 30992 ft | 399 kts | 33° |
| 2026-05-05 01:55 | 52.40231 | -7.53595 | 30510 ft | 396 kts | 33° |
| 2026-05-05 01:55 | 52.42521 | -7.51116 | 29974 ft | 393 kts | 33° |
| 2026-05-05 01:55 | 52.44761 | -7.48581 | 29406 ft | 390 kts | 38° |
| 2026-05-05 01:55 | 52.46847 | -7.45777 | 28915 ft | 385 kts | 40° |
| 2026-05-05 01:56 | 52.48867 | -7.42931 | 28441 ft | 381 kts | 40° |
| 2026-05-05 01:56 | 52.50847 | -7.40061 | 27931 ft | 379 kts | 41° |
| 2026-05-05 01:56 | 52.52786 | -7.37207 | 27149 ft | 383 kts | 41° |
| 2026-05-05 01:56 | 52.54777 | -7.34255 | 26379 ft | 387 kts | 41° |
| 2026-05-05 01:57 | 52.56791 | -7.31263 | 25630 ft | 391 kts | 41° |
| 2026-05-05 01:57 | 52.58827 | -7.28239 | 24893 ft | 394 kts | 41° |
| 2026-05-05 01:57 | 52.60871 | -7.25206 | 24200 ft | 396 kts | 41° |
| 2026-05-05 01:57 | 52.62901 | -7.22194 | 23852 ft | 389 kts | 41° |
| 2026-05-05 01:58 | 52.64883 | -7.19250 | 23603 ft | 378 kts | 41° |
| 2026-05-05 01:58 | 52.66807 | -7.16391 | 23365 ft | 367 kts | 41° |
| 2026-05-05 01:58 | 52.68679 | -7.13607 | 23091 ft | 358 kts | 41° |
| 2026-05-05 01:58 | 52.70520 | -7.10866 | 22777 ft | 355 kts | 41° |
| 2026-05-05 01:59 | 52.72347 | -7.08145 | 22214 ft | 354 kts | 41° |
| 2026-05-05 01:59 | 52.74149 | -7.05458 | 21687 ft | 353 kts | 41° |
| 2026-05-05 01:59 | 52.75967 | -7.02744 | 21224 ft | 349 kts | 41° |
| 2026-05-05 01:59 | 52.77467 | -7.00502 | 20827 ft | 347 kts | 41° |
| 2026-05-05 02:00 | 52.78881 | -6.98385 | 20446 ft | 345 kts | 41° |
| 2026-05-05 02:00 | 52.80660 | -6.95719 | 19951 ft | 344 kts | 40° |
| 2026-05-05 02:00 | 52.82544 | -6.93288 | 19358 ft | 345 kts | 32° |
| 2026-05-05 02:00 | 52.84592 | -6.91214 | 18819 ft | 345 kts | 29° |
| 2026-05-05 02:01 | 52.86673 | -6.89254 | 18361 ft | 343 kts | 28° |
| 2026-05-05 02:01 | 52.88751 | -6.87336 | 17855 ft | 340 kts | 28° |
| 2026-05-05 02:01 | 52.90816 | -6.85444 | 17366 ft | 337 kts | 28° |
| 2026-05-05 02:01 | 52.92863 | -6.83572 | 16890 ft | 334 kts | 28° |
| 2026-05-05 02:02 | 52.94869 | -6.81739 | 16512 ft | 331 kts | 28° |
| 2026-05-05 02:02 | 52.96890 | -6.79891 | 16257 ft | 331 kts | 27° |
| 2026-05-05 02:02 | 52.98902 | -6.78051 | 16020 ft | 330 kts | 27° |
| 2026-05-05 02:02 | 53.00908 | -6.76215 | 15759 ft | 329 kts | 27° |
| 2026-05-05 02:03 | 53.02881 | -6.74407 | 15510 ft | 328 kts | 27° |
| 2026-05-05 02:03 | 53.04876 | -6.72577 | 15263 ft | 326 kts | 27° |
| 2026-05-05 02:03 | 53.06836 | -6.70777 | 15017 ft | 325 kts | 27° |
| 2026-05-05 02:03 | 53.08815 | -6.68959 | 14777 ft | 324 kts | 27° |
| 2026-05-05 02:04 | 53.10785 | -6.67146 | 14532 ft | 323 kts | 27° |
| 2026-05-05 02:04 | 53.12749 | -6.65338 | 14290 ft | 322 kts | 27° |
| 2026-05-05 02:04 | 53.14704 | -6.63535 | 14026 ft | 320 kts | 27° |
| 2026-05-05 02:04 | 53.16608 | -6.61777 | 13550 ft | 319 kts | 27° |
| 2026-05-05 02:05 | 53.18539 | -6.59993 | 13071 ft | 316 kts | 27° |
| 2026-05-05 02:05 | 53.20454 | -6.58222 | 12606 ft | 313 kts | 27° |
| 2026-05-05 02:05 | 53.22360 | -6.56458 | 12147 ft | 311 kts | 27° |
| 2026-05-05 02:05 | 53.24223 | -6.54732 | 11713 ft | 308 kts | 27° |
| 2026-05-05 02:06 | 53.26069 | -6.53018 | 11437 ft | 300 kts | 27° |
| 2026-05-05 02:06 | 53.27879 | -6.51336 | 11071 ft | 295 kts | 27° |
| 2026-05-05 02:06 | 53.29666 | -6.49676 | 10659 ft | 293 kts | 27° |
| 2026-05-05 02:06 | 53.31441 | -6.48025 | 10240 ft | 291 kts | 27° |
| 2026-05-05 02:07 | 53.33204 | -6.46383 | 9815 ft | 289 kts | 27° |
| 2026-05-05 02:07 | 53.34951 | -6.44755 | 9358 ft | 287 kts | 27° |
| 2026-05-05 02:07 | 53.36692 | -6.43130 | 8905 ft | 284 kts | 27° |
| 2026-05-05 02:07 | 53.38411 | -6.41524 | 8456 ft | 282 kts | 27° |
| 2026-05-05 02:08 | 53.40122 | -6.39925 | 7975 ft | 280 kts | 27° |
| 2026-05-05 02:08 | 53.41784 | -6.38370 | 7568 ft | 278 kts | 27° |
| 2026-05-05 02:08 | 53.43461 | -6.36800 | 7286 ft | 283 kts | 27° |
| 2026-05-05 02:08 | 53.45216 | -6.35157 | 7057 ft | 287 kts | 27° |
| 2026-05-05 02:09 | 53.46935 | -6.33544 | 6811 ft | 286 kts | 27° |
| 2026-05-05 02:09 | 53.48632 | -6.31799 | 6563 ft | 286 kts | 38° |
| 2026-05-05 02:09 | 53.49798 | -6.29150 | 6298 ft | 287 kts | 70° |
| 2026-05-05 02:09 | 53.50103 | -6.25825 | 6048 ft | 288 kts | 87° |
| 2026-05-05 02:10 | 53.50111 | -6.22453 | 5781 ft | 289 kts | 90° |
| 2026-05-05 02:10 | 53.50086 | -6.19084 | 5523 ft | 288 kts | 89° |
| 2026-05-05 02:10 | 53.50072 | -6.15729 | 5267 ft | 287 kts | 89° |
| 2026-05-05 02:10 | 53.50070 | -6.12387 | 5066 ft | 284 kts | 89° |
| 2026-05-05 02:11 | 53.50074 | -6.09120 | 4740 ft | 282 kts | 89° |
| 2026-05-05 02:11 | 53.50083 | -6.05872 | 4507 ft | 275 kts | 89° |
| 2026-05-05 02:11 | 53.50090 | -6.03731 | 4433 ft | 278 kts | 89° |
| 2026-05-05 02:11 | 53.50092 | -6.02919 | 4400 ft | 279 kts | 89° |
| 2026-05-05 02:12 | 53.50095 | -6.02114 | 4371 ft | 279 kts | 89° |
| 2026-05-05 02:12 | 53.50106 | -5.99147 | 4247 ft | 279 kts | 89° |
| 2026-05-05 02:12 | 53.50112 | -5.97516 | 4181 ft | 279 kts | 89° |
| 2026-05-05 02:13 | 53.50114 | -5.95889 | 4114 ft | 279 kts | 91° |
| 2026-05-05 02:13 | 53.50012 | -5.94502 | 4049 ft | 278 kts | 105° |
| 2026-05-05 02:13 | 53.49862 | -5.93733 | 4017 ft | 278 kts | 114° |
| 2026-05-05 02:13 | 53.49647 | -5.93006 | 3980 ft | 277 kts | 122° |
| 2026-05-05 02:14 | 53.49423 | -5.92446 | 3957 ft | 277 kts | 129° |
| 2026-05-05 02:14 | 53.49269 | -5.92135 | 3943 ft | 276 kts | 133° |
| 2026-05-05 02:14 | 53.48973 | -5.91641 | 3924 ft | 276 kts | 141° |
| 2026-05-05 02:14 | 53.47627 | -5.90451 | 3810 ft | 274 kts | 168° |
| 2026-05-05 02:15 | 53.45762 | -5.90583 | 3684 ft | 271 kts | 201° |
| 2026-05-05 02:15 | 53.44025 | -5.91840 | 3559 ft | 272 kts | 205° |
| 2026-05-05 02:15 | 53.42259 | -5.93016 | 3145 ft | 272 kts | 200° |
| 2026-05-05 02:15 | 53.41157 | -5.93841 | 3006 ft | 267 kts | 216° |
| 2026-05-05 02:16 | 53.40487 | -5.94856 | 3010 ft | 253 kts | 233° |
| 2026-05-05 02:16 | 53.40054 | -5.96108 | 2988 ft | 246 kts | 252° |
| 2026-05-05 02:16 | 53.39929 | -5.96863 | 2979 ft | 243 kts | 262° |
| 2026-05-05 02:16 | 53.39894 | -5.97886 | 2973 ft | 241 kts | 276° |
| 2026-05-05 02:17 | 53.40084 | -5.99217 | 2987 ft | 229 kts | 294° |
| 2026-05-05 02:17 | 53.40678 | -6.01292 | 2971 ft | 219 kts | 292° |
| 2026-05-05 02:17 | 53.41045 | -6.03734 | 2811 ft | 217 kts | 275° |
| 2026-05-05 02:17 | 53.41075 | -6.06201 | 2693 ft | 211 kts | 272° |
| 2026-05-05 02:18 | 53.41127 | -6.08567 | 2483 ft | 198 kts | 275° |
| 2026-05-05 02:18 | 53.41247 | -6.10829 | 2094 ft | 191 kts | 277° |
| 2026-05-05 02:18 | 53.41372 | -6.13052 | 1945 ft | 193 kts | 277° |
| 2026-05-05 02:18 | 53.41496 | -6.15271 | 1872 ft | 187 kts | 277° |
| 2026-05-05 02:19 | 53.41612 | -6.17408 | 1457 ft | 183 kts | 276° |
| 2026-05-05 02:19 | 53.41728 | -6.19537 | 930 ft | 182 kts | 276° |
| 2026-05-05 02:19 | 53.41845 | -6.21662 | 676 ft | 182 kts | 276° |
| 2026-05-05 02:19 | 53.41953 | -6.23670 | 408 ft | 167 kts | 275° |
| 2026-05-05 02:20 | 53.42054 | -6.25524 | 216 ft | 155 kts | 276° |
| 2026-05-05 02:20 | 53.42130 | -6.26898 | 215 ft | 80 kts | 275° |
| 2026-05-05 02:20 | 53.42172 | -6.27616 | 214 ft | 41 kts | 276° |
| 2026-05-05 02:20 | 53.42250 | -6.27986 | 223 ft | 30 kts | 298° |
| 2026-05-05 02:21 | 53.42330 | -6.28133 | 216 ft | 9 kts | 355° |
| 2026-05-05 02:21 | 53.42360 | -6.28100 | 218 ft | 4 kts | 50° |
| 2026-05-05 02:21 | 53.42362 | -6.28069 | 217 ft | 5 kts | 89° |
| 2026-05-05 02:21 | 53.42358 | -6.27978 | 214 ft | 11 kts | 95° |
| 2026-05-05 02:22 | 53.42349 | -6.27813 | 221 ft | 17 kts | 95° |
| 2026-05-05 02:22 | 53.42336 | -6.27586 | 222 ft | 21 kts | 95° |
| 2026-05-05 02:22 | 53.42323 | -6.27340 | 217 ft | 21 kts | 96° |
| 2026-05-05 02:22 | 53.42310 | -6.27100 | 221 ft | 21 kts | 94° |
| 2026-05-05 02:23 | 53.42297 | -6.26862 | 214 ft | 20 kts | 95° |
| 2026-05-05 02:23 | 53.42284 | -6.26626 | 214 ft | 20 kts | 95° |
| 2026-05-05 02:23 | 53.42271 | -6.26398 | 218 ft | 20 kts | 95° |
| 2026-05-05 02:23 | 53.42260 | -6.26169 | 214 ft | 20 kts | 94° |
| 2026-05-05 02:24 | 53.42280 | -6.25956 | 221 ft | 17 kts | 56° |
| 2026-05-05 02:24 | 53.42355 | -6.25807 | 218 ft | 17 kts | 46° |
| 2026-05-05 02:24 | 53.42436 | -6.25669 | 223 ft | 16 kts | 45° |
| 2026-05-05 02:24 | 53.42516 | -6.25531 | 214 ft | 17 kts | 45° |
| 2026-05-05 02:25 | 53.42599 | -6.25419 | 216 ft | 11 kts | 11° |
| 2026-05-05 02:25 | 53.42661 | -6.25421 | 220 ft | 8 kts | 3° |
| 2026-05-05 02:25 | 53.42709 | -6.25385 | 216 ft | 8 kts | 40° |
| 2026-05-05 02:25 | 53.42764 | -6.25300 | 219 ft | 13 kts | 47° |
| 2026-05-05 02:26 | 53.42837 | -6.25189 | 216 ft | 13 kts | 26° |
| 2026-05-05 02:26 | 53.42859 | -6.25171 | 217 ft | 1 kts | 13° |
| 2026-05-05 02:26 | 53.42867 | -6.25177 | 216 ft | 2 kts | 336° |
| 2026-05-05 02:26 | 53.42879 | -6.25188 | 221 ft | 3 kts | 333° |
| 2026-05-05 02:27 | 53.42906 | -6.25210 | 215 ft | 6 kts | 333° |
| 2026-05-05 02:27 | 53.42948 | -6.25212 | 217 ft | 4 kts | 37° |
| 2026-05-05 02:27 | 53.42957 | -6.25166 | 220 ft | 6 kts | 84° |
| 2026-05-05 02:27 | 53.42965 | -6.25091 | 214 ft | 6 kts | 51° |
| 2026-05-05 02:28 | 53.42998 | -6.25076 | 219 ft | 6 kts | 4° |
| 2026-05-05 02:28 | 53.43016 | -6.25074 | 217 ft | 0 kts | 4° |